createdAt,value
2022-09-20T00:00:02.899Z,80.96
2022-09-20T00:05:04.306Z,81.19
2022-09-20T00:10:05.646Z,81.41
2022-09-20T00:15:06.874Z,81.79
2022-09-20T00:20:08.289Z,81.87
2022-09-20T00:25:09.559Z,81.19
2022-09-20T00:30:10.814Z,82.57
2022-09-20T00:35:12.042Z,81.62
2022-09-20T00:40:13.328Z,81.92
2022-09-20T00:45:14.583Z,80.72
2022-09-20T00:50:15.864Z,79.24
2022-09-20T00:55:17.110Z,79.99
2022-09-20T01:00:18.330Z,80.59
2022-09-20T01:05:19.531Z,80.37
2022-09-20T01:10:20.745Z,80.17
2022-09-20T01:15:23.250Z,80.06
2022-09-20T01:20:24.533Z,80.41
2022-09-20T01:25:25.765Z,80.63
2022-09-20T01:30:27.099Z,81.41
2022-09-20T01:35:28.784Z,81.90
2022-09-20T01:40:30.095Z,81.54
2022-09-20T01:45:31.511Z,81.16
2022-09-20T01:50:32.864Z,80.31
2022-09-20T01:55:34.093Z,80.00
2022-09-20T02:00:36.381Z,79.72
2022-09-20T02:05:37.623Z,78.50
2022-09-20T02:10:38.897Z,78.37
2022-09-20T02:15:41.985Z,77.82
2022-09-20T02:20:43.320Z,77.56
2022-09-20T02:25:44.583Z,77.82
2022-09-20T02:30:45.814Z,77.95
2022-09-20T02:35:47.047Z,77.05
2022-09-20T02:40:48.290Z,76.67
2022-09-20T02:45:49.613Z,77.04
2022-09-20T02:50:50.927Z,76.78
2022-09-20T02:55:52.215Z,77.13
2022-09-20T03:00:54.040Z,77.51
2022-09-20T03:05:55.378Z,78.13
2022-09-20T03:10:56.665Z,77.52
2022-09-20T03:15:57.967Z,77.97
2022-09-20T03:20:59.519Z,78.72
2022-09-20T03:26:00.745Z,78.97
2022-09-20T03:31:02.075Z,78.71
2022-09-20T03:36:03.379Z,77.92
2022-09-20T03:41:04.659Z,77.52
2022-09-20T03:46:06.029Z,77.40
2022-09-20T03:51:07.437Z,77.82
2022-09-20T03:56:09.155Z,78.42
2022-09-20T04:01:10.466Z,80.15
2022-09-20T04:06:11.737Z,80.43
2022-09-20T04:11:13.587Z,82.52
2022-09-20T04:16:14.982Z,84.45
2022-09-20T04:21:17.092Z,85.75
2022-09-20T04:26:18.370Z,83.88
2022-09-20T04:31:20.925Z,83.14
2022-09-20T04:36:31.571Z,82.66
2022-09-20T04:41:34.473Z,81.79
2022-09-20T04:46:35.829Z,82.44
2022-09-20T04:51:37.069Z,82.02
2022-09-20T04:56:38.325Z,81.14
2022-09-20T05:01:39.864Z,80.68
2022-09-20T05:06:41.175Z,80.04
2022-09-20T05:11:46.983Z,79.96
2022-09-20T05:16:48.233Z,82.82
2022-09-20T05:21:50.086Z,80.92
2022-09-20T05:26:51.336Z,80.96
2022-09-20T05:31:52.638Z,80.66
2022-09-20T05:36:54.730Z,82.08
2022-09-20T05:41:56.074Z,82.55
2022-09-20T05:46:57.318Z,82.66
2022-09-20T05:51:58.581Z,83.28
2022-09-20T05:56:59.790Z,81.55
2022-09-20T06:02:01.073Z,81.16
2022-09-20T06:07:02.351Z,79.86
2022-09-20T06:12:03.590Z,79.95
2022-09-20T06:17:04.823Z,78.86
2022-09-20T06:22:06.058Z,79.57
2022-09-20T06:27:08.631Z,81.06
2022-09-20T06:32:10.995Z,81.73
2022-09-20T06:37:30.984Z,82.84
2022-09-20T06:42:32.250Z,82.81
2022-09-20T06:47:38.023Z,81.39
2022-09-20T06:52:39.993Z,80.57
2022-09-20T06:57:41.239Z,81.43
2022-09-20T07:02:43.213Z,80.83
2022-09-20T07:07:44.847Z,81.11
2022-09-20T07:12:46.781Z,79.88
2022-09-20T07:17:49.447Z,78.16
2022-09-20T07:22:50.778Z,78.68
2022-09-20T07:27:52.128Z,77.27
2022-09-20T07:32:53.647Z,77.64
2022-09-20T07:37:54.897Z,74.40
2022-09-20T07:42:56.379Z,74.71
2022-09-20T07:47:58.150Z,74.91
2022-09-20T07:52:59.436Z,72.56
2022-09-20T07:58:00.738Z,73.29
2022-09-20T08:03:02.221Z,73.38
2022-09-20T08:08:03.473Z,72.99
2022-09-20T08:18:28.203Z,71.65
2022-09-20T08:23:29.462Z,71.39
2022-09-20T08:28:31.511Z,71.20
2022-09-20T08:33:32.815Z,70.54
2022-09-20T08:43:56.232Z,70.30
2022-09-20T08:48:57.631Z,69.28
2022-09-20T08:53:58.885Z,69.32
2022-09-20T08:59:00.245Z,69.68
2022-09-20T09:04:01.504Z,67.17
2022-09-20T09:09:02.855Z,65.65
2022-09-20T09:14:04.730Z,67.53
2022-09-20T09:19:06.133Z,66.93
2022-09-20T09:24:09.799Z,64.20
2022-09-20T09:29:11.127Z,62.92
2022-09-20T09:34:12.524Z,64.24
2022-09-20T09:39:13.760Z,63.94
2022-09-20T09:44:15.610Z,63.42
2022-09-20T09:49:17.192Z,61.33
2022-09-20T09:54:19.775Z,61.00
2022-09-20T09:59:21.055Z,59.63
2022-09-20T10:04:22.372Z,60.50
2022-09-20T10:09:23.638Z,60.99
2022-09-20T10:14:24.861Z,62.79
2022-09-20T10:19:26.104Z,60.80
2022-09-20T10:24:31.017Z,60.45
2022-09-20T10:29:32.506Z,62.84
2022-09-20T10:34:35.459Z,64.92
2022-09-20T10:39:36.787Z,65.62
2022-09-20T10:44:38.154Z,65.17
2022-09-20T10:49:39.396Z,64.74
2022-09-20T10:54:40.708Z,63.32
2022-09-20T10:59:42.240Z,59.42
2022-09-20T11:04:47.102Z,59.94
2022-09-20T11:09:48.366Z,57.83
2022-09-20T11:14:50.043Z,57.12
2022-09-20T11:19:51.345Z,59.02
2022-09-20T11:24:52.611Z,58.78
2022-09-20T11:29:53.842Z,55.79
2022-09-20T11:34:55.717Z,53.74
2022-09-20T11:39:57.115Z,51.85
2022-09-20T11:44:58.431Z,54.03
2022-09-20T11:49:59.762Z,56.46
2022-09-20T11:55:01.130Z,57.22
2022-09-20T12:00:07.436Z,60.10
2022-09-20T12:05:08.674Z,61.52
2022-09-20T12:10:10.037Z,64.31
2022-09-20T12:15:11.315Z,59.58
2022-09-20T12:20:12.944Z,59.42
2022-09-20T12:25:14.261Z,58.66
2022-09-20T12:30:16.800Z,56.02
2022-09-20T12:35:18.117Z,57.43
2022-09-20T12:40:19.402Z,54.83
2022-09-20T12:45:20.681Z,50.77
2022-09-20T12:50:40.669Z,51.06
2022-09-20T12:55:45.440Z,52.22
2022-09-20T13:00:47.121Z,52.22
2022-09-20T13:05:48.730Z,51.41
2022-09-20T13:10:50.319Z,53.55
2022-09-20T13:15:52.416Z,55.19
2022-09-20T13:20:54.010Z,58.53
2022-09-20T13:25:56.066Z,61.98
2022-09-20T13:30:57.328Z,62.90
2022-09-20T13:35:58.765Z,62.88
2022-09-20T13:41:00.703Z,62.68
2022-09-20T13:46:02.004Z,61.92
2022-09-20T13:51:03.330Z,62.85
2022-09-20T13:56:04.547Z,62.13
2022-09-20T14:01:05.850Z,62.56
2022-09-20T14:06:07.134Z,61.17
2022-09-20T14:11:08.367Z,56.10
2022-09-20T14:16:09.647Z,56.91
2022-09-20T14:21:11.122Z,51.24
2022-09-20T14:26:12.365Z,50.78
2022-09-20T14:31:13.711Z,49.93
2022-09-20T14:36:15.722Z,48.61
2022-09-20T14:41:16.990Z,47.99
2022-09-20T14:46:18.302Z,49.31
2022-09-20T14:51:21.391Z,48.29
2022-09-20T14:56:22.611Z,50.63
2022-09-20T15:01:24.360Z,52.39
2022-09-20T15:06:25.710Z,50.44
2022-09-20T15:11:29.360Z,50.15
2022-09-20T15:16:30.686Z,51.57
2022-09-20T15:21:32.247Z,48.83
2022-09-20T15:26:34.169Z,50.30
2022-09-20T15:31:35.573Z,53.83
2022-09-20T15:36:36.908Z,52.44
2022-09-20T15:41:38.134Z,53.38
2022-09-20T15:46:39.491Z,53.27
2022-09-20T15:51:40.711Z,53.44
2022-09-20T15:56:41.996Z,54.65
2022-09-20T16:01:43.234Z,51.46
2022-09-20T16:06:44.472Z,53.88
2022-09-20T16:11:45.748Z,53.95
2022-09-20T16:16:47.005Z,54.41
2022-09-20T16:21:53.593Z,56.24
2022-09-20T16:26:58.018Z,55.88
2022-09-20T16:31:59.657Z,56.47
2022-09-20T16:37:01.006Z,58.71
2022-09-20T16:42:03.632Z,59.89
2022-09-20T16:47:08.092Z,61.35
2022-09-20T16:52:09.448Z,61.59
2022-09-20T16:57:10.695Z,63.58
2022-09-20T17:02:12.309Z,63.49
2022-09-20T17:07:13.569Z,65.68
2022-09-20T17:12:18.746Z,66.82
2022-09-20T17:17:22.508Z,66.77
2022-09-20T17:22:23.755Z,66.02
2022-09-20T17:27:25.018Z,67.15
2022-09-20T17:32:26.335Z,68.08
2022-09-20T17:37:27.905Z,69.00
2022-09-20T17:42:30.247Z,67.65
2022-09-20T17:47:31.576Z,67.78
2022-09-20T17:52:32.796Z,67.53
2022-09-20T17:57:34.057Z,68.44
2022-09-20T18:02:35.298Z,70.04
2022-09-20T18:07:36.552Z,69.95
2022-09-20T18:12:38.161Z,69.87
2022-09-20T18:17:39.456Z,68.40
2022-09-20T18:22:40.693Z,68.82
2022-09-20T18:27:42.277Z,69.10
2022-09-20T18:32:44.415Z,69.75
2022-09-20T18:37:45.648Z,70.61
2022-09-20T18:42:46.886Z,71.24
2022-09-20T18:47:48.136Z,71.87
2022-09-20T18:52:51.176Z,71.05
2022-09-20T18:57:52.440Z,70.93
2022-09-20T19:02:53.683Z,71.26
2022-09-20T19:07:54.947Z,69.84
2022-09-20T19:12:56.157Z,71.01
2022-09-20T19:17:57.914Z,69.60
2022-09-20T19:22:59.135Z,70.43
2022-09-20T19:28:00.377Z,70.00
2022-09-20T19:33:02.856Z,71.07
2022-09-20T19:38:04.367Z,71.32
2022-09-20T19:43:05.627Z,71.45
2022-09-20T19:48:06.902Z,71.81
2022-09-20T19:53:08.183Z,71.83
2022-09-20T19:58:09.456Z,71.20
2022-09-20T20:03:10.755Z,73.10
2022-09-20T20:08:12.058Z,72.72
2022-09-20T20:13:33.249Z,71.77
2022-09-20T20:18:34.519Z,72.13
2022-09-20T20:23:35.810Z,72.69
2022-09-20T20:28:37.269Z,72.26
2022-09-20T20:33:38.540Z,72.47
2022-09-20T20:38:40.183Z,73.16
2022-09-20T20:43:41.433Z,73.31
2022-09-20T20:48:42.654Z,72.62
2022-09-20T20:53:47.444Z,72.43
2022-09-20T20:58:48.690Z,72.10
2022-09-20T21:03:49.907Z,71.39
2022-09-20T21:08:51.177Z,72.30
2022-09-20T21:13:52.427Z,72.35
2022-09-20T21:18:53.848Z,72.50
2022-09-20T21:23:55.138Z,73.20
2022-09-20T21:28:59.074Z,73.66
2022-09-20T21:34:00.307Z,77.23
2022-09-20T21:39:01.506Z,73.18
2022-09-20T21:44:02.727Z,72.20
2022-09-20T21:49:08.487Z,72.16
2022-09-20T21:54:09.714Z,72.90
2022-09-20T21:59:11.067Z,72.08
2022-09-20T22:04:12.288Z,73.19
2022-09-20T22:09:13.587Z,73.47
2022-09-20T22:14:14.797Z,74.24
2022-09-20T22:19:16.854Z,74.11
2022-09-20T22:24:18.142Z,74.57
2022-09-20T22:29:19.482Z,74.59
2022-09-20T22:34:20.768Z,75.28
2022-09-20T22:39:22.038Z,75.00
2022-09-20T22:44:23.297Z,74.33
2022-09-20T22:49:24.519Z,74.34
2022-09-20T22:54:26.357Z,73.93
2022-09-20T22:59:27.558Z,73.63
2022-09-20T23:04:28.817Z,73.84
2022-09-20T23:09:30.070Z,73.08
2022-09-20T23:14:31.270Z,72.85
2022-09-20T23:19:32.469Z,72.84
2022-09-20T23:24:33.726Z,72.48
2022-09-20T23:29:34.992Z,71.99
2022-09-20T23:34:36.289Z,72.36
2022-09-20T23:39:37.575Z,72.46
2022-09-20T23:44:39.529Z,72.27
2022-09-20T23:49:41.222Z,72.00
2022-09-20T23:54:42.565Z,72.11
2022-09-20T23:59:43.915Z,72.17
